Time;durP1;ratioP1;P1;durP2;ratioP2;P2;SDS_P1;SDS_P2;PMS_P1;PMS_P2;Temp;Humidity;BMP_temperature;BMP_pressure;BME280_temperature;BME280_humidity;BME280_pressure;Samples;Min_cycle;Max_cycle;Signal;HPM_P1;HPM_P2
2022/05/04 00:00:09;;;;;;;6.50;5.90;;;;;;;;;;5052387;28;20389;-68
2022/05/04 00:02:36;;;;;;;7.47;6.40;;;;;;;;;;5051879;28;20091;-68
2022/05/04 00:05:02;;;;;;;8.52;7.03;;;;;;;;;;5052186;28;20461;-68
2022/05/04 00:07:28;;;;;;;7.35;6.28;;;;;;;;;;5051914;28;20457;-68
2022/05/04 00:09:55;;;;;;;7.25;6.00;;;;;;;;;;5052604;28;20099;-68
2022/05/04 00:12:21;;;;;;;6.50;5.80;;;;;;;;;;5052811;28;20017;-69
2022/05/04 00:14:47;;;;;;;7.40;6.25;;;;;;;;;;5051713;28;20373;-68
2022/05/04 00:17:13;;;;;;;7.07;5.53;;;;;;;;;;5052276;28;20477;-67
2022/05/04 00:19:39;;;;;;;7.35;6.65;;;;;;;;;;5051912;28;20037;-67
2022/05/04 00:22:05;;;;;;;8.18;6.07;;;;;;;;;;5052377;28;20025;-67
2022/05/04 00:24:31;;;;;;;7.03;6.30;;;;;;;;;;5051884;28;20021;-67
2022/05/04 00:26:57;;;;;;;7.80;6.00;;;;;;;;;;5052486;28;20112;-67
2022/05/04 00:29:23;;;;;;;6.20;5.60;;;;;;;;;;5052075;28;20454;-67
2022/05/04 00:31:49;;;;;;;9.05;6.63;;;;;;;;;;5051532;28;20035;-67
2022/05/04 00:34:16;;;;;;;7.85;6.57;;;;;;;;;;5051793;28;20029;-67
2022/05/04 00:36:43;;;;;;;8.13;6.43;;;;;;;;;;5051048;28;20033;-67
2022/05/04 00:39:08;;;;;;;6.88;6.18;;;10.70;99.90;;;;;;5051656;28;20563;-67
2022/05/04 00:41:34;;;;;;;8.85;6.75;;;10.50;99.90;;;;;;5048053;28;20022;-67
2022/05/04 00:44:00;;;;;;;8.63;6.80;;;10.30;99.90;;;;;;5032345;28;20026;-68
2022/05/04 00:46:25;;;;;;;7.32;6.50;;;10.30;99.90;;;;;;5045691;28;20029;-67
2022/05/04 00:48:51;;;;;;;8.23;6.63;;;10.20;99.90;;;;;;5051343;28;20436;-67
2022/05/04 00:51:17;;;;;;;7.10;6.40;;;10.10;99.90;;;;;;5051863;28;20421;-67
2022/05/04 00:53:43;;;;;;;8.98;6.32;;;10.10;99.90;;;;;;5050067;28;20021;-67
2022/05/04 00:56:09;;;;;;;9.32;7.78;;;10.00;99.90;;;;;;5051969;28;20060;-67
2022/05/04 00:58:55;;;;;;;10.93;7.80;;;9.90;99.90;;;;;;5050681;28;20029;-67
2022/05/04 01:01:31;;;;;;;8.70;7.38;;;9.90;99.90;;;;;;5051723;28;20087;-67
2022/05/04 01:03:59;;;;;;;16.00;8.00;;;9.90;99.90;;;;;;5052011;28;20060;-68
2022/05/04 01:06:25;;;;;;;14.57;9.45;;;9.90;99.90;;;;;;5051974;28;20035;-67
2022/05/04 01:08:52;;;;;;;8.70;7.75;;;9.90;99.90;;;;;;5050733;28;20474;-67
2022/05/04 01:11:18;;;;;;;9.88;7.53;;;10.00;99.90;;;;;;5051853;28;20060;-67
2022/05/04 01:14:04;;;;;;;9.55;7.63;;;10.10;99.90;;;;;;5050977;28;20029;-66
2022/05/04 01:16:32;;;;;;;9.90;7.93;;;10.10;99.90;;;;;;5051309;28;20032;-66
2022/05/04 01:18:57;;;;;;;9.73;7.60;;;10.10;99.90;;;;;;5051355;28;20049;-66
2022/05/04 01:21:23;;;;;;;10.60;9.50;;;10.10;99.90;;;;;;5051588;28;20477;-66
2022/05/04 01:23:49;;;;;;;12.35;9.25;;;10.10;99.90;;;;;;5050712;28;20167;-66
2022/05/04 01:26:18;;;;;;;13.07;9.40;;;10.10;99.90;;;;;;5051226;28;20025;-66
2022/05/04 01:28:45;;;;;;;11.57;9.52;;;10.10;99.90;;;;;;5045692;28;20039;-66
2022/05/04 01:31:11;;;;;;;10.23;8.75;;;10.10;99.90;;;;;;5051554;28;20470;-67
2022/05/04 01:39:00;;;;;;;15.82;10.18;;;10.00;99.90;;;;;;5085150;22;20536;-68
2022/05/04 01:44:10;;;;;;;9.57;8.50;;;10.00;99.90;;;;;;5041382;28;20120;-68
2022/05/04 01:46:36;;;;;;;11.45;8.75;;;10.00;99.90;;;;;;5043820;28;20100;-68
2022/05/04 01:49:02;;;;;;;12.18;8.80;;;9.90;99.90;;;;;;5023823;28;20449;-68
2022/05/04 01:51:27;;;;;;;9.52;8.48;;;9.90;99.90;;;;;;5052126;28;20021;-68
2022/05/04 01:53:53;;;;;;;13.52;10.00;;;9.90;99.90;;;;;;5054224;28;20025;-68
2022/05/04 01:56:18;;;;;;;11.63;8.95;;;9.90;99.90;;;;;;5055319;28;20040;-68
2022/05/04 01:58:44;;;;;;;10.90;8.95;;;9.80;99.90;;;;;;5054936;28;20374;-68
2022/05/04 02:01:10;;;;;;;10.50;8.63;;;9.80;99.90;;;;;;5054620;28;20029;-69
2022/05/04 02:03:37;;;;;;;10.05;8.88;;;9.80;99.90;;;;;;5055453;28;20029;-69
2022/05/04 02:06:03;;;;;;;9.35;8.02;;;9.80;99.90;;;;;;5054340;28;20025;-68
2022/05/04 02:08:29;;;;;;;9.80;8.50;;;9.80;99.90;;;;;;5055473;28;20037;-68
2022/05/04 02:10:55;;;;;;;9.57;8.48;;;9.80;99.90;;;;;;5054553;28;20037;-68
2022/05/04 02:13:21;;;;;;;11.35;8.50;;;9.70;99.90;;;;;;5054240;28;20025;-68
2022/05/04 02:15:46;;;;;;;11.13;9.02;;;9.70;99.90;;;;;;5054780;28;20029;-68
2022/05/04 02:18:12;;;;;;;11.95;8.80;;;9.70;99.90;;;;;;5054660;28;20017;-68
2022/05/04 02:20:38;;;;;;;10.13;9.00;;;9.80;99.90;;;;;;5054855;28;20039;-68
2022/05/04 02:23:03;;;;;;;11.77;9.07;;;9.80;99.90;;;;;;5054462;28;20031;-68
2022/05/04 02:25:29;;;;;;;10.02;8.48;;;9.80;99.90;;;;;;5036233;28;20025;-68
2022/05/04 02:27:54;;;;;;;9.70;8.73;;;9.80;99.90;;;;;;5054772;28;20025;-68
2022/05/04 02:30:20;;;;;;;10.85;9.50;;;9.80;99.90;;;;;;5053888;28;20059;-70
2022/05/04 02:32:46;;;;;;;9.02;8.18;;;9.90;99.90;;;;;;5054371;28;20052;-68
2022/05/04 02:37:56;;;;;;;12.05;8.80;;;9.90;99.90;;;;;;5054300;28;20158;-67
2022/05/04 02:40:23;;;;;;;10.35;8.25;;;9.90;99.90;;;;;;5053416;28;20132;-68
2022/05/04 02:42:49;;;;;;;11.88;9.82;;;10.00;99.90;;;;;;5054418;28;20024;-69
2022/05/04 02:45:14;;;;;;;9.38;8.32;;;10.00;99.90;;;;;;5053693;28;20044;-69
2022/05/04 02:47:40;;;;;;;12.10;9.43;;;10.00;99.90;;;;;;5054482;28;20453;-69
2022/05/04 02:50:07;;;;;;;9.25;8.35;;;10.00;99.90;;;;;;5053508;28;20497;-68
2022/05/04 02:52:33;;;;;;;12.18;9.02;;;10.00;99.90;;;;;;5054060;28;20074;-68
2022/05/04 02:54:59;;;;;;;9.32;8.35;;;10.00;99.90;;;;;;5054020;28;20029;-68
2022/05/04 02:57:24;;;;;;;12.68;9.93;;;10.00;99.90;;;;;;5053480;28;20052;-68
2022/05/04 02:59:50;;;;;;;10.52;9.15;;;9.90;99.90;;;;;;5053751;28;20418;-68
2022/05/04 03:02:27;;;;;;;12.98;9.85;;;10.00;99.90;;;;;;5053326;28;20040;-68
2022/05/04 03:05:05;;;;;;;12.80;10.10;;;10.00;99.90;;;;;;5053712;28;20025;-68
2022/05/04 03:07:31;;;;;;;12.07;9.77;;;10.00;99.90;;;;;;5032875;28;20029;-69
2022/05/04 03:09:57;;;;;;;13.32;10.30;;;10.00;99.90;;;;;;5034061;28;20041;-68
2022/05/04 03:12:24;;;;;;;16.13;12.57;;;10.00;99.90;;;;;;5048325;28;20033;-68
2022/05/04 03:14:51;;;;;;;14.18;11.15;;;10.00;99.90;;;;;;5053915;28;20053;-68
2022/05/04 03:17:17;;;;;;;11.88;9.98;;;10.00;99.90;;;;;;5052850;28;20096;-68
2022/05/04 03:19:43;;;;;;;10.70;9.60;;;10.00;99.90;;;;;;5053761;28;20061;-68
2022/05/04 03:22:09;;;;;;;12.95;10.25;;;10.00;99.90;;;;;;5052715;28;20075;-68
2022/05/04 03:24:35;;;;;;;10.98;9.50;;;10.00;99.90;;;;;;5053519;28;20025;-68
2022/05/04 03:27:01;;;;;;;10.48;9.40;;;10.00;99.90;;;;;;5053316;28;20078;-69
2022/05/04 03:29:26;;;;;;;10.93;9.57;;;10.00;99.90;;;;;;5052940;28;20658;-68
2022/05/04 03:31:52;;;;;;;10.70;9.50;;;10.00;99.90;;;;;;5053737;28;20051;-68
2022/05/04 03:34:18;;;;;;;10.65;9.57;;;10.00;99.90;;;;;;5053169;28;20444;-68
2022/05/04 03:36:44;;;;;;;11.57;10.35;;;10.10;99.90;;;;;;5053733;28;20029;-69
2022/05/04 03:39:10;;;;;;;11.68;9.82;;;10.10;99.90;;;;;;5053060;28;20170;-68
2022/05/04 03:41:36;;;;;;;12.93;9.52;;;10.10;99.90;;;;;;5053888;28;20029;-69
2022/05/04 03:44:02;;;;;;;11.25;9.52;;;10.20;99.90;;;;;;5035291;28;20087;-68
2022/05/04 03:46:33;;;;;;;11.63;9.43;;;10.20;99.90;;;;;;5051992;28;20603;-68
2022/05/04 03:48:58;;;;;;;12.38;9.88;;;10.20;99.90;;;;;;5053299;28;20036;-68
2022/05/04 03:51:25;;;;;;;13.38;10.73;;;10.30;99.90;;;;;;5052530;28;20025;-67
2022/05/04 03:53:52;;;;;;;12.43;9.75;;;10.30;99.90;;;;;;5053047;28;20036;-68
2022/05/04 03:56:19;;;;;;;12.57;9.50;;;10.20;99.90;;;;;;5052247;28;20067;-68
2022/05/04 03:58:45;;;;;;;9.82;8.50;;;10.30;99.90;;;;;;5053162;28;20029;-68
2022/05/04 04:01:11;;;;;;;10.50;8.95;;;10.30;99.90;;;;;;5052312;28;20063;-68
2022/05/04 04:03:37;;;;;;;9.68;8.50;;;10.30;99.90;;;;;;5052769;28;20377;-68
2022/05/04 04:06:03;;;;;;;11.82;9.95;;;10.30;99.90;;;;;;5052620;28;20040;-68
2022/05/04 04:08:29;;;;;;;13.40;10.40;;;10.30;99.90;;;;;;5052255;28;20124;-68
2022/05/04 04:10:54;;;;;;;15.45;10.25;;;10.30;99.90;;;;;;5034692;28;20040;-68
2022/05/04 04:13:21;;;;;;;9.63;8.73;;;10.30;99.90;;;;;;5051706;28;20025;-69
2022/05/04 04:15:51;;;;;;;9.43;8.48;;;10.30;99.90;;;;;;5051855;28;20104;-68
2022/05/04 04:18:21;;;;;;;10.35;8.98;;;10.30;99.90;;;;;;5051684;28;20116;-68
2022/05/04 04:23:32;;;;;;;13.18;11.65;;;10.30;99.90;;;;;;5051924;28;20040;-68
2022/05/04 04:25:59;;;;;;;14.73;12.05;;;10.40;99.90;;;;;;5052437;28;20091;-68
2022/05/04 04:28:25;;;;;;;14.60;10.90;;;10.40;99.90;;;;;;5031877;28;20458;-68
2022/05/04 04:30:51;;;;;;;11.57;10.25;;;10.40;99.90;;;;;;5032643;28;20030;-68
2022/05/04 04:33:17;;;;;;;12.13;10.43;;;10.40;99.90;;;;;;5036563;28;20043;-68
2022/05/04 04:35:43;;;;;;;12.55;10.30;;;10.40;99.90;;;;;;5052486;28;20461;-68
2022/05/04 04:38:08;;;;;;;11.95;10.68;;;10.40;99.90;;;;;;5052050;28;20037;-68
2022/05/04 04:40:34;;;;;;;13.23;10.45;;;10.40;99.90;;;;;;5051905;28;20823;-68
2022/05/04 04:43:02;;;;;;;14.40;11.00;;;10.50;99.90;;;;;;5051885;28;20059;-68
2022/05/04 04:45:28;;;;;;;11.98;10.65;;;10.50;99.90;;;;;;5051633;28;20024;-68
2022/05/04 04:47:56;;;;;;;11.02;9.85;;;10.50;99.90;;;;;;5051666;28;20021;-68
2022/05/04 04:50:22;;;;;;;12.13;10.38;;;10.50;99.90;;;;;;5051519;28;20079;-68
2022/05/04 04:52:48;;;;;;;10.90;9.80;;;10.60;99.90;;;;;;5051952;28;20059;-68
2022/05/04 04:55:14;;;;;;;14.15;10.98;;;10.60;99.90;;;;;;5051574;28;20056;-68
2022/05/04 04:57:40;;;;;;;14.30;10.85;;;10.60;99.90;;;;;;5051737;28;20511;-68
2022/05/04 05:00:06;;;;;;;15.88;10.90;;;10.70;99.90;;;;;;5051909;28;20037;-68
2022/05/04 05:02:35;;;;;;;13.55;10.63;;;10.70;99.90;;;;;;5050852;28;20628;-67
2022/05/04 05:05:02;;;;;;;13.02;11.10;;;10.70;99.90;;;;;;5051593;28;20032;-69
2022/05/04 05:07:27;;;;;;;14.10;10.73;;;10.70;99.90;;;;;;5050837;28;20462;-69
2022/05/04 05:09:53;;;;;;;14.10;11.90;;;10.80;99.90;;;;;;5051725;28;20167;-68
2022/05/04 05:12:19;;;;;;;12.50;10.45;;;10.80;99.90;;;;;;5044086;28;20030;-69
2022/05/04 05:17:31;;;;;;;12.48;10.27;;;10.90;99.90;;;;;;5050921;28;20044;-68
2022/05/04 05:19:57;;;;;;;13.05;11.07;;;11.00;99.90;;;;;;5034234;28;20384;-69
2022/05/04 05:22:23;;;;;;;11.95;9.98;;;11.10;99.90;;;;;;5050911;28;20025;-69
2022/05/04 05:24:48;;;;;;;11.98;10.70;;;11.10;99.90;;;;;;5052091;28;20099;-68
2022/05/04 05:27:15;;;;;;;13.57;10.32;;;11.20;99.90;;;;;;5054655;28;20100;-68
2022/05/04 05:29:40;;;;;;;11.68;9.95;;;11.20;99.90;;;;;;5027154;28;20032;-69
2022/05/04 05:32:06;;;;;;;12.88;10.38;;;11.30;99.90;;;;;;5057811;28;20124;-69
2022/05/04 05:34:33;;;;;;;11.55;9.80;;;11.40;99.90;;;;;;5056070;28;20033;-68
2022/05/04 05:37:00;;;;;;;10.82;9.48;;;11.40;99.90;;;;;;5057624;28;20072;-68
2022/05/04 05:39:26;;;;;;;11.73;9.82;;;11.50;99.90;;;;;;5056987;28;20052;-68
2022/05/04 05:41:52;;;;;;;14.73;9.93;;;11.60;99.90;;;;;;5056615;28;20595;-70
2022/05/04 05:44:17;;;;;;;13.82;10.32;;;11.70;99.90;;;;;;5055131;28;20028;-67
2022/05/04 05:46:43;;;;;;;11.60;10.00;;;11.80;99.90;;;;;;5055946;28;20036;-69
2022/05/04 05:49:09;;;;;;;15.15;10.23;;;12.00;99.90;;;;;;5055770;28;20033;-69
2022/05/04 05:51:34;;;;;;;11.02;9.32;;;12.00;99.90;;;;;;5055420;28;20048;-68
2022/05/04 05:54:00;;;;;;;12.38;9.52;;;12.10;99.90;;;;;;5055389;28;20025;-67
2022/05/04 05:56:26;;;;;;;12.52;9.18;;;12.20;99.90;;;;;;5054931;28;20079;-71
2022/05/04 05:58:51;;;;;;;11.05;8.88;;;12.30;99.90;;;;;;5055683;28;20021;-74
2022/05/04 06:01:17;;;;;;;10.50;9.40;;;12.40;99.90;;;;;;5055127;28;20021;-69
2022/05/04 06:03:42;;;;;;;12.60;10.57;;;12.40;99.90;;;;;;5055236;28;20037;-68
2022/05/04 06:06:08;;;;;;;13.07;11.25;;;12.50;99.90;;;;;;5055964;28;20036;-69
2022/05/04 06:08:34;;;;;;;15.63;11.15;;;12.60;99.90;;;;;;5054354;28;20036;-70
2022/05/04 06:11:00;;;;;;;13.63;10.63;;;12.70;99.90;;;;;;5055464;28;20021;-70
2022/05/04 06:13:26;;;;;;;11.65;10.13;;;12.70;99.90;;;;;;5055015;28;20114;-68
2022/05/04 06:15:52;;;;;;;13.55;9.65;;;12.70;99.90;;;;;;5056081;28;20370;-70
2022/05/04 06:18:17;;;;;;;14.20;9.45;;;12.70;99.90;;;;;;5055126;28;20049;-71
2022/05/04 06:20:43;;;;;;;13.40;10.40;;;12.70;99.90;;;;;;5037240;28;20040;-78
2022/05/04 06:23:09;;;;;;;11.65;10.45;;;12.80;99.90;;;;;;5055522;28;20032;-70
2022/05/04 06:25:36;;;;;;;11.15;9.70;;;12.80;99.90;;;;;;5055026;28;20027;-70
2022/05/04 06:28:02;;;;;;;12.10;10.60;;;12.80;99.90;;;;;;5055161;28;20028;-69
2022/05/04 06:35:56;;;;;;;12.05;10.30;;;13.10;99.90;;;;;;5055227;28;20040;-74
2022/05/04 06:38:22;;;;;;;11.45;9.93;;;13.10;99.90;;;;;;5053263;28;20037;-70
2022/05/04 06:40:47;;;;;;;12.38;9.75;;;13.10;99.90;;;;;;5054296;28;20068;-71
2022/05/04 06:43:13;;;;;;;13.23;10.70;;;13.10;99.90;;;;;;5048010;28;20412;-70
2022/05/04 06:45:38;;;;;;;14.98;10.20;;;13.10;99.90;;;;;;5025893;28;20025;-70
2022/05/04 06:48:06;;;;;;;12.02;10.05;;;13.20;99.90;;;;;;5054634;28;20142;-70
2022/05/04 06:50:31;;;;;;;12.60;10.07;;;13.20;99.90;;;;;;5053971;28;20112;-70
2022/05/04 06:52:57;;;;;;;12.40;10.80;;;13.30;99.90;;;;;;5054702;28;20100;-70
2022/05/04 06:55:23;;;;;;;11.23;9.73;;;13.30;99.90;;;;;;5054226;28;20086;-72
2022/05/04 06:57:48;;;;;;;12.63;10.50;;;13.30;99.90;;;;;;5054223;28;20032;-70
2022/05/04 07:00:14;;;;;;;11.85;10.43;;;13.30;99.90;;;;;;5048003;28;20474;-69
2022/05/04 07:02:40;;;;;;;14.57;10.05;;;13.40;99.90;;;;;;5045063;28;20020;-70
2022/05/04 07:05:06;;;;;;;12.35;10.38;;;13.50;99.90;;;;;;5045386;28;20075;-70
2022/05/04 07:07:33;;;;;;;11.52;9.55;;;13.60;99.90;;;;;;5044039;28;20028;-70
2022/05/04 07:09:59;;;;;;;13.10;9.95;;;13.60;99.90;;;;;;5045185;28;20047;-70
2022/05/04 07:12:25;;;;;;;11.90;9.38;;;13.80;99.90;;;;;;5047021;28;20396;-70
2022/05/04 07:14:56;;;;;;;9.48;6.97;;;13.90;99.90;;;;;;5042005;28;20034;-70
2022/05/04 07:17:22;;;;;;;8.93;6.57;;;14.10;99.90;;;;;;5042193;28;20025;-70
2022/05/04 07:19:48;;;;;;;7.63;6.32;;;14.20;99.90;;;;;;5047153;28;20495;-69
2022/05/04 07:22:13;;;;;;;7.78;6.28;;;14.30;99.90;;;;;;5048773;28;20100;-71
2022/05/04 07:24:39;;;;;;;10.27;7.15;;;14.40;99.90;;;;;;5046631;28;20322;-70
2022/05/04 07:27:08;;;;;;;7.47;4.97;;;14.60;99.90;;;;;;5043197;28;20053;-70
2022/05/04 07:29:34;;;;;;;7.05;5.22;;;14.70;99.90;;;;;;5045388;28;20112;-70
2022/05/04 07:32:00;;;;;;;5.38;4.55;;;14.80;99.90;;;;;;5047330;28;20109;-70
2022/05/04 07:34:26;;;;;;;7.45;5.20;;;14.90;99.90;;;;;;5041984;28;20021;-70
2022/05/04 07:36:51;;;;;;;6.22;4.60;;;15.00;99.90;;;;;;5044549;28;20032;-70
2022/05/04 07:44:45;;;;;;;5.70;4.45;;;15.20;99.90;;;;;;5053671;28;20039;-70
2022/05/04 07:47:11;;;;;;;8.63;4.95;;;15.30;99.90;;;;;;5054608;28;20096;-70
2022/05/04 07:49:37;;;;;;;6.78;4.40;;;15.40;99.90;;;;;;5051976;28;20067;-70
2022/05/04 07:52:03;;;;;;;5.22;4.60;;;15.40;99.90;;;;;;5051501;28;20040;-71
2022/05/04 07:54:28;;;;;;;6.32;4.20;;;15.50;99.90;;;;;;5052195;28;20025;-70
2022/05/04 07:56:54;;;;;;;4.95;4.00;;;15.60;99.90;;;;;;5053012;28;20032;-71
2022/05/04 07:59:20;;;;;;;7.30;4.45;;;15.70;99.90;;;;;;5052146;28;20048;-70
2022/05/04 08:04:30;;;;;;;7.03;4.53;;;15.90;99.90;;;;;;5051842;28;20040;-70
2022/05/04 08:06:56;;;;;;;5.95;4.22;;;15.90;99.90;;;;;;5052640;28;20021;-70
2022/05/04 08:09:22;;;;;;;4.85;4.32;;;16.00;99.90;;;;;;5051415;28;20041;-70
2022/05/04 08:11:48;;;;;;;5.32;4.32;;;16.10;99.90;;;;;;5051532;28;20445;-70
2022/05/04 08:14:14;;;;;;;6.65;4.63;;;16.10;99.90;;;;;;5034654;28;20082;-70
2022/05/04 08:16:40;;;;;;;5.43;4.20;;;16.10;99.90;;;;;;5051801;28;20029;-69
2022/05/04 08:19:06;;;;;;;7.80;4.43;;;16.10;99.90;;;;;;5052121;28;20036;-70
2022/05/04 08:21:33;;;;;;;6.80;4.30;;;16.10;99.90;;;;;;5051131;28;20040;-70
2022/05/04 08:23:59;;;;;;;6.57;4.03;;;16.10;99.90;;;;;;5052634;28;20409;-70
2022/05/04 08:26:25;;;;;;;4.68;3.40;;;16.10;99.90;;;;;;5051550;28;20432;-70
2022/05/04 08:28:51;;;;;;;8.75;4.00;;;16.10;99.90;;;;;;5051661;28;20029;-70
2022/05/04 08:31:18;;;;;;;5.35;4.40;;;16.10;99.90;;;;;;5051631;28;20462;-69
2022/05/04 08:33:44;;;;;;;10.73;4.70;;;16.10;99.90;;;;;;5051180;28;20040;-69
2022/05/04 08:36:09;;;;;;;5.93;3.95;;;15.90;99.90;;;;;;5052028;28;20051;-70
2022/05/04 08:38:35;;;;;;;5.07;4.13;;;15.90;99.90;;;;;;5050563;28;20081;-70
2022/05/04 08:41:02;;;;;;;6.57;4.50;;;15.90;99.90;;;;;;5050648;28;20074;-70
2022/05/04 08:43:31;;;;;;;7.10;4.40;;;15.80;99.90;;;;;;5051263;28;20025;-69
2022/05/04 08:46:00;;;;;;;4.20;3.80;;;15.70;99.90;;;;;;5052141;28;20029;-70
2022/05/04 08:48:26;;;;;;;8.30;4.90;;;15.50;99.90;;;;;;5051492;28;20541;-70
2022/05/04 08:50:54;;;;;;;7.05;4.30;;;15.50;99.90;;;;;;5051774;28;20031;-70
2022/05/04 08:53:19;;;;;;;7.30;4.05;;;15.40;99.90;;;;;;5051646;28;20033;-71
2022/05/04 08:55:46;;;;;;;4.35;3.92;;;15.30;99.90;;;;;;5051234;28;20033;-71
2022/05/04 08:58:12;;;;;;;7.93;4.90;;;15.10;99.90;;;;;;5051810;28;20024;-71
2022/05/04 09:00:38;;;;;;;6.95;4.63;;;14.90;99.90;;;;;;5050765;28;20402;-69
2022/05/04 09:03:03;;;;;;;5.60;4.82;;;14.70;99.90;;;;;;5050787;28;20075;-69
2022/05/04 09:05:29;;;;;;;9.98;5.88;;;14.50;99.90;;;;;;5050705;28;20032;-69
2022/05/04 09:07:57;;;;;;;10.75;6.28;;;14.30;99.90;;;;;;5051575;28;20029;-69
2022/05/04 09:10:31;;;;;;;9.73;5.95;;;14.10;99.90;;;;;;5050895;28;20037;-68
2022/05/04 09:12:59;;;;;;;8.85;6.07;;;13.90;99.90;;;;;;5051749;28;20116;-68
2022/05/04 09:15:28;;;;;;;14.93;6.82;;;13.70;99.90;;;;;;5051387;28;20056;-68
2022/05/04 09:18:07;;;;;;;7.88;5.53;;;13.50;99.90;;;;;;5033294;28;20036;-68
2022/05/04 09:20:57;;;;;;;7.53;5.70;;;13.30;99.90;;;;;;5051329;28;20037;-68
2022/05/04 09:23:26;;;;;;;8.40;6.07;;;13.10;99.90;;;;;;5051472;28;20025;-68
2022/05/04 09:25:54;;;;;;;10.25;6.97;;;13.00;99.90;;;;;;5052083;28;20035;-67
2022/05/04 09:28:21;;;;;;;8.38;7.00;;;13.00;99.90;;;;;;5051994;28;20029;-68
2022/05/04 09:30:52;;;;;;;10.85;5.88;;;12.90;99.90;;;;;;5051317;28;20051;-68
2022/05/04 09:33:27;;;;;;;7.75;5.32;;;13.00;99.90;;;;;;5051298;28;20079;-68
2022/05/04 09:35:57;;;;;;;8.20;6.13;;;13.00;99.90;;;;;;5051752;28;20036;-68
2022/05/04 09:46:47;;;;;;;6.97;6.28;;;13.30;99.90;;;;;;5051817;28;20023;-69
2022/05/04 09:49:21;;;;;;;10.65;7.65;;;13.50;99.90;;;;;;5051421;28;20021;-69
2022/05/04 09:51:51;;;;;;;10.02;8.32;;;13.70;99.90;;;;;;5050538;28;20471;-69
2022/05/04 09:54:25;;;;;;;12.65;8.02;;;14.00;99.90;;;;;;5050035;28;20525;-70
2022/05/04 09:56:53;;;;;;;10.98;8.32;;;14.10;99.90;;;;;;5051998;28;20033;-69
2022/05/04 09:59:22;;;;;;;12.18;7.82;;;14.30;99.90;;;;;;5051614;28;20033;-68
2022/05/04 10:01:50;;;;;;;8.55;7.70;;;14.50;99.90;;;;;;5050840;28;20029;-71
2022/05/04 10:04:17;;;;;;;10.70;7.57;;;14.70;99.90;;;;;;5051869;28;20087;-69
2022/05/04 10:06:44;;;;;;;12.57;8.27;;;14.90;99.90;;;;;;5050854;28;20032;-69
2022/05/04 10:09:10;;;;;;;14.65;8.82;;;15.10;99.90;;;;;;5051529;28;20367;-70
2022/05/04 10:11:36;;;;;;;9.98;7.75;;;15.30;99.90;;;;;;5049979;28;20029;-70
2022/05/04 10:14:12;;;;;;;9.00;8.18;;;15.50;99.90;;;;;;5052114;28;20033;-69
2022/05/04 10:17:01;;;;;;;11.00;7.97;;;15.70;99.90;;;;;;5053970;28;20067;-69
2022/05/04 10:19:39;;;;;;;7.10;6.20;;;15.80;99.90;;;;;;5054749;28;20029;-69
2022/05/04 10:22:08;;;;;;;7.60;6.70;;;16.00;99.90;;;;;;5054620;28;20039;-69
2022/05/04 10:24:35;;;;;;;8.63;7.50;;;16.10;99.90;;;;;;5054233;28;20033;-70
2022/05/04 10:27:23;;;;;;;9.82;8.40;;;16.10;99.90;;;;;;5036962;28;20771;-69
2022/05/04 10:32:46;;;;;;;13.00;8.90;;;16.30;99.90;;;;;;5054165;28;20094;-69
2022/05/04 10:35:38;;;;;;;11.45;8.38;;;16.60;99.90;;;;;;5054443;28;20029;-70
2022/05/04 10:38:05;;;;;;;9.75;8.75;;;16.70;99.90;;;;;;5042517;28;20120;-70
2022/05/04 10:40:37;;;;;;;10.63;9.15;;;16.80;99.90;;;;;;5052484;28;20037;-70
2022/05/04 10:43:27;;;;;;;11.68;10.27;;;17.00;99.90;;;;;;5053789;28;20112;-70
2022/05/04 10:45:53;;;;;;;14.05;9.18;;;17.30;99.90;;;;;;5052358;28;20041;-70
2022/05/04 10:48:18;;;;;;;10.15;8.20;;;17.60;99.90;;;;;;5054429;28;20117;-70
2022/05/04 10:51:04;;;;;;;8.73;7.82;;;17.90;99.90;;;;;;5053546;28;20469;-69
2022/05/04 10:53:29;;;;;;;11.75;7.88;;;18.10;99.90;;;;;;5053214;28;20036;-70
2022/05/04 10:56:02;;;;;;;7.75;6.85;;;18.30;99.90;;;;;;5035904;28;20542;-70
2022/05/04 10:58:31;;;;;;;7.40;6.03;;;18.60;99.90;;;;;;5053982;28;20033;-70
2022/05/04 11:01:16;;;;;;;7.97;6.97;;;18.90;99.90;;;;;;5054171;28;20041;-70
2022/05/04 11:04:11;;;;;;;9.63;8.18;;;19.20;99.90;;;;;;5052474;28;20049;-70
2022/05/04 11:06:56;;;;;;;6.57;5.25;;;19.40;99.90;;;;;;5016942;28;20095;-70
2022/05/04 11:09:24;;;;;;;8.10;7.32;;;19.50;99.90;;;;;;5053442;28;20393;-70
2022/05/04 11:11:52;;;;;;;7.38;6.07;;;19.60;99.90;;;;;;5051754;28;20092;-70
2022/05/04 11:14:23;;;;;;;8.18;6.85;;;19.50;99.90;;;;;;5053555;28;20035;-70
2022/05/04 11:16:53;;;;;;;10.98;7.72;;;19.50;99.90;;;;;;5053114;28;20025;-70
2022/05/04 11:19:22;;;;;;;9.32;7.05;;;19.70;99.90;;;;;;5054499;28;20112;-70
2022/05/04 11:21:48;;;;;;;8.70;5.90;;;19.70;98.50;;;;;;5053062;28;20035;-70
2022/05/04 11:24:16;;;;;;;9.55;5.55;;;19.80;98.00;;;;;;5054617;28;20025;-73
2022/05/04 11:26:50;;;;;;;4.80;4.15;;;19.90;95.60;;;;;;5057202;28;20017;-70
2022/05/04 11:29:22;;;;;;;7.43;5.40;;;19.80;98.40;;;;;;5062887;28;20064;-70
2022/05/04 11:31:54;;;;;;;7.85;5.05;;;19.80;98.10;;;;;;5043861;28;20100;-70
2022/05/04 11:34:25;;;;;;;6.63;4.95;;;20.00;99.10;;;;;;5062304;28;20029;-70
2022/05/04 11:36:53;;;;;;;7.43;4.60;;;20.10;95.80;;;;;;5057509;28;20126;-70
2022/05/04 11:39:21;;;;;;;4.53;3.65;;;20.30;96.00;;;;;;5053101;28;20134;-70
2022/05/04 11:41:52;;;;;;;5.85;4.00;;;20.40;96.70;;;;;;5051261;28;20039;-70
2022/05/04 11:44:21;;;;;;;5.63;4.15;;;20.50;93.10;;;;;;5052000;28;20496;-70
2022/05/04 11:46:52;;;;;;;3.90;3.60;;;20.60;92.60;;;;;;5051161;28;20462;-70
2022/05/04 11:49:24;;;;;;;6.20;4.28;;;20.60;93.80;;;;;;5052217;28;20087;-70
2022/05/04 11:51:51;;;;;;;6.20;3.78;;;20.80;91.10;;;;;;5051899;28;20083;-69
2022/05/04 11:54:17;;;;;;;6.30;3.90;;;20.70;92.30;;;;;;5052181;28;20041;-70
2022/05/04 11:56:43;;;;;;;4.65;3.47;;;20.60;92.00;;;;;;5051949;28;20024;-70
2022/05/04 11:59:08;;;;;;;9.80;5.03;;;20.70;92.50;;;;;;5052188;28;20491;-70
2022/05/04 12:01:35;;;;;;;5.78;4.10;;;20.90;89.70;;;;;;5052019;28;20029;-70
2022/05/04 12:04:02;;;;;;;4.65;3.72;;;21.00;89.80;;;;;;5052630;28;20107;-70
2022/05/04 12:06:29;;;;;;;10.15;4.38;;;21.00;90.70;;;;;;5052163;28;20033;-70
2022/05/04 12:08:55;;;;;;;8.10;3.38;;;21.30;87.80;;;;;;5051527;28;20033;-70
2022/05/04 12:11:23;;;;;;;6.03;4.07;;;21.50;87.40;;;;;;5051755;28;20052;-70
2022/05/04 12:13:50;;;;;;;3.97;3.58;;;21.80;86.10;;;;;;5051341;28;20112;-70
2022/05/04 12:16:16;;;;;;;4.95;3.53;;;22.00;86.00;;;;;;5052240;28;20032;-70
2022/05/04 12:18:41;;;;;;;5.40;4.22;;;22.30;81.00;;;;;;5051123;28;20020;-70
2022/05/04 12:21:12;;;;;;;6.82;4.80;;;22.00;80.20;;;;;;5051978;28;20390;-70
2022/05/04 12:23:40;;;;;;;6.93;3.95;;;21.80;80.60;;;;;;5051006;28;20040;-70
2022/05/04 12:26:07;;;;;;;12.15;4.93;;;21.50;84.10;;;;;;5052571;28;20029;-70
2022/05/04 12:28:34;;;;;;;5.57;4.65;;;21.30;83.20;;;;;;5051634;28;20028;-69
2022/05/04 12:33:45;;;;;;;7.55;5.32;;;21.10;83.80;;;;;;5051479;28;20032;-70
2022/05/04 12:36:12;;;;;;;6.82;4.38;;;21.00;82.50;;;;;;5051924;28;20028;-69
2022/05/04 12:38:45;;;;;;;6.30;3.35;;;21.00;84.50;;;;;;5050845;28;20053;-69
2022/05/04 12:41:12;;;;;;;4.53;3.95;;;21.10;85.00;;;;;;5050764;28;20048;-70
2022/05/04 12:43:38;;;;;;;6.72;4.43;;;21.50;84.60;;;;;;5050901;28;20446;-70
2022/05/04 12:46:08;;;;;;;5.55;4.18;;;21.70;81.30;;;;;;5051531;28;20025;-70
2022/05/04 12:48:38;;;;;;;8.70;4.65;;;21.50;80.70;;;;;;5051070;28;20370;-70
2022/05/04 12:51:04;;;;;;;;;;;21.50;78.40;;;;;;5052470;28;20423;-69
2022/05/04 12:53:30;;;;;;;6.15;3.60;;;21.40;79.10;;;;;;5051547;28;19991;-70
2022/05/04 12:58:40;;;;;;;7.03;3.40;;;21.40;80.50;;;;;;5050892;28;20389;-69
2022/05/04 13:01:05;;;;;;;6.70;3.63;;;21.50;82.60;;;;;;5048327;28;20037;-69
2022/05/04 13:03:32;;;;;;;4.95;3.58;;;21.60;81.70;;;;;;5052307;28;20032;-69
2022/05/04 13:05:58;;;;;;;6.18;2.95;;;21.60;78.40;;;;;;5051834;28;20059;-68
2022/05/04 13:08:24;;;;;;;3.60;2.90;;;21.50;77.20;;;;;;5050706;28;20102;-69
2022/05/04 13:10:50;;;;;;;6.53;3.05;;;21.40;75.10;;;;;;5050594;28;20438;-69
2022/05/04 13:13:21;;;;;;;5.43;3.13;;;21.20;74.90;;;;;;5051323;28;20516;-69
2022/05/04 13:15:51;;;;;;;5.60;3.50;;;21.10;76.90;;;;;;5051320;28;20658;-69
2022/05/04 13:18:17;;;;;;;5.15;3.30;;;21.20;77.00;;;;;;5051921;28;20087;-69
2022/05/04 13:20:43;;;;;;;6.05;3.20;;;21.40;78.10;;;;;;5051350;28;20438;-69
2022/05/04 13:23:09;;;;;;;4.68;2.80;;;21.50;79.00;;;;;;5051407;28;20067;-69
2022/05/04 13:25:35;;;;;;;6.72;3.13;;;21.60;78.50;;;;;;5051231;28;20033;-69
2022/05/04 13:28:01;;;;;;;6.60;3.17;;;21.60;77.10;;;;;;5052253;28;20374;-69
2022/05/04 13:30:27;;;;;;;7.82;3.08;;;21.50;78.50;;;;;;5051297;28;20116;-69
2022/05/04 13:32:53;;;;;;;5.30;3.40;;;21.30;79.80;;;;;;5051516;28;20461;-69